sensor_id;sensor_type;location;lat;lon;timestamp;P1;durP1;ratioP1;P2;durP2;ratioP2
665;SDS011;315;48.738;9.126;2023-02-15T00:01:09;39.00;;;23.17;;
665;SDS011;315;48.738;9.126;2023-02-15T00:03:36;29.20;;;21.60;;
665;SDS011;315;48.738;9.126;2023-02-15T00:06:02;31.27;;;22.13;;
665;SDS011;315;48.738;9.126;2023-02-15T00:08:28;29.70;;;21.23;;
665;SDS011;315;48.738;9.126;2023-02-15T00:11:02;33.80;;;22.37;;
665;SDS011;315;48.738;9.126;2023-02-15T00:13:35;31.47;;;21.80;;
665;SDS011;315;48.738;9.126;2023-02-15T00:16:05;34.23;;;22.77;;
665;SDS011;315;48.738;9.126;2023-02-15T00:18:32;31.67;;;21.17;;
665;SDS011;315;48.738;9.126;2023-02-15T00:20:58;29.20;;;21.83;;
665;SDS011;315;48.738;9.126;2023-02-15T00:23:28;34.30;;;23.00;;
665;SDS011;315;48.738;9.126;2023-02-15T00:26:07;31.43;;;21.77;;
665;SDS011;315;48.738;9.126;2023-02-15T00:28:34;29.80;;;21.20;;
665;SDS011;315;48.738;9.126;2023-02-15T00:31:04;34.90;;;22.97;;
665;SDS011;315;48.738;9.126;2023-02-15T00:33:30;27.57;;;21.13;;
665;SDS011;315;48.738;9.126;2023-02-15T00:35:57;36.53;;;22.17;;
665;SDS011;315;48.738;9.126;2023-02-15T00:38:23;27.53;;;19.67;;
665;SDS011;315;48.738;9.126;2023-02-15T00:40:55;27.73;;;21.80;;
665;SDS011;315;48.738;9.126;2023-02-15T00:43:22;33.37;;;22.90;;
665;SDS011;315;48.738;9.126;2023-02-15T00:45:48;34.87;;;23.17;;
665;SDS011;315;48.738;9.126;2023-02-15T00:48:13;34.60;;;24.93;;
665;SDS011;315;48.738;9.126;2023-02-15T00:50:39;31.53;;;22.67;;
665;SDS011;315;48.738;9.126;2023-02-15T00:53:05;26.80;;;19.60;;
665;SDS011;315;48.738;9.126;2023-02-15T00:55:30;31.97;;;21.43;;
665;SDS011;315;48.738;9.126;2023-02-15T00:57:56;30.67;;;20.90;;
665;SDS011;315;48.738;9.126;2023-02-15T01:00:22;31.07;;;20.27;;
665;SDS011;315;48.738;9.126;2023-02-15T01:02:47;31.53;;;20.40;;
665;SDS011;315;48.738;9.126;2023-02-15T01:05:13;31.23;;;19.57;;
665;SDS011;315;48.738;9.126;2023-02-15T01:07:38;30.40;;;21.40;;
665;SDS011;315;48.738;9.126;2023-02-15T01:10:05;26.53;;;20.40;;
665;SDS011;315;48.738;9.126;2023-02-15T01:12:31;30.73;;;21.43;;
665;SDS011;315;48.738;9.126;2023-02-15T01:14:57;29.67;;;20.70;;
665;SDS011;315;48.738;9.126;2023-02-15T01:17:23;33.17;;;21.23;;
665;SDS011;315;48.738;9.126;2023-02-15T01:19:48;28.47;;;18.33;;
665;SDS011;315;48.738;9.126;2023-02-15T01:22:14;29.93;;;20.80;;
665;SDS011;315;48.738;9.126;2023-02-15T01:24:39;27.00;;;18.30;;
665;SDS011;315;48.738;9.126;2023-02-15T01:27:05;29.87;;;20.83;;
665;SDS011;315;48.738;9.126;2023-02-15T01:29:30;29.60;;;21.30;;
665;SDS011;315;48.738;9.126;2023-02-15T01:31:56;29.33;;;20.10;;
665;SDS011;315;48.738;9.126;2023-02-15T01:34:21;27.00;;;19.23;;
665;SDS011;315;48.738;9.126;2023-02-15T01:36:47;27.03;;;19.03;;
665;SDS011;315;48.738;9.126;2023-02-15T01:39:13;26.23;;;18.63;;
665;SDS011;315;48.738;9.126;2023-02-15T01:41:39;26.43;;;18.93;;
665;SDS011;315;48.738;9.126;2023-02-15T01:47:09;28.73;;;19.50;;
665;SDS011;315;48.738;9.126;2023-02-15T01:49:39;26.47;;;18.57;;
665;SDS011;315;48.738;9.126;2023-02-15T01:52:07;26.27;;;19.00;;
665;SDS011;315;48.738;9.126;2023-02-15T01:54:34;29.40;;;18.87;;
665;SDS011;315;48.738;9.126;2023-02-15T01:57:04;29.33;;;19.80;;
665;SDS011;315;48.738;9.126;2023-02-15T01:59:33;25.17;;;18.47;;
665;SDS011;315;48.738;9.126;2023-02-15T02:02:02;30.83;;;20.60;;
665;SDS011;315;48.738;9.126;2023-02-15T02:04:33;27.77;;;18.93;;
665;SDS011;315;48.738;9.126;2023-02-15T02:07:06;30.07;;;18.57;;
665;SDS011;315;48.738;9.126;2023-02-15T02:09:33;26.93;;;18.93;;
665;SDS011;315;48.738;9.126;2023-02-15T02:12:00;28.40;;;19.53;;
665;SDS011;315;48.738;9.126;2023-02-15T02:14:26;25.20;;;18.87;;
665;SDS011;315;48.738;9.126;2023-02-15T02:16:55;27.60;;;18.07;;
665;SDS011;315;48.738;9.126;2023-02-15T02:19:37;27.97;;;19.20;;
665;SDS011;315;48.738;9.126;2023-02-15T02:28:19;28.13;;;22.27;;
665;SDS011;315;48.738;9.126;2023-02-15T02:42:22;30.83;;;20.97;;
665;SDS011;315;48.738;9.126;2023-02-15T02:44:54;26.40;;;19.53;;
665;SDS011;315;48.738;9.126;2023-02-15T02:47:36;32.93;;;19.33;;
665;SDS011;315;48.738;9.126;2023-02-15T02:50:09;32.37;;;20.57;;
665;SDS011;315;48.738;9.126;2023-02-15T02:52:41;26.47;;;17.93;;
665;SDS011;315;48.738;9.126;2023-02-15T02:58:03;32.17;;;19.53;;
665;SDS011;315;48.738;9.126;2023-02-15T03:00:39;28.80;;;18.10;;
665;SDS011;315;48.738;9.126;2023-02-15T03:03:33;28.13;;;19.90;;
665;SDS011;315;48.738;9.126;2023-02-15T03:06:06;27.60;;;18.20;;
665;SDS011;315;48.738;9.126;2023-02-15T03:08:43;29.67;;;18.97;;
665;SDS011;315;48.738;9.126;2023-02-15T03:11:19;29.03;;;19.13;;
665;SDS011;315;48.738;9.126;2023-02-15T03:13:45;27.20;;;19.50;;
665;SDS011;315;48.738;9.126;2023-02-15T03:16:13;27.10;;;20.10;;
665;SDS011;315;48.738;9.126;2023-02-15T03:21:44;26.00;;;19.33;;
665;SDS011;315;48.738;9.126;2023-02-15T03:24:15;26.93;;;20.80;;
665;SDS011;315;48.738;9.126;2023-02-15T03:26:47;26.03;;;19.70;;
665;SDS011;315;48.738;9.126;2023-02-15T03:29:16;30.00;;;20.43;;
665;SDS011;315;48.738;9.126;2023-02-15T03:31:46;27.37;;;19.73;;
665;SDS011;315;48.738;9.126;2023-02-15T03:34:18;29.47;;;19.93;;
665;SDS011;315;48.738;9.126;2023-02-15T03:36:45;28.13;;;19.07;;
665;SDS011;315;48.738;9.126;2023-02-15T03:39:22;25.80;;;19.90;;
665;SDS011;315;48.738;9.126;2023-02-15T03:42:04;26.63;;;18.73;;
665;SDS011;315;48.738;9.126;2023-02-15T03:44:54;22.23;;;16.23;;
665;SDS011;315;48.738;9.126;2023-02-15T03:47:28;22.13;;;16.57;;
665;SDS011;315;48.738;9.126;2023-02-15T03:50:02;27.57;;;19.87;;
665;SDS011;315;48.738;9.126;2023-02-15T03:52:54;33.63;;;19.70;;
665;SDS011;315;48.738;9.126;2023-02-15T03:55:23;27.97;;;18.13;;
665;SDS011;315;48.738;9.126;2023-02-15T03:57:48;29.30;;;18.67;;
665;SDS011;315;48.738;9.126;2023-02-15T04:00:59;30.70;;;18.70;;
665;SDS011;315;48.738;9.126;2023-02-15T04:03:50;27.60;;;19.10;;
665;SDS011;315;48.738;9.126;2023-02-15T04:06:20;30.47;;;21.23;;
665;SDS011;315;48.738;9.126;2023-02-15T04:08:46;32.30;;;22.40;;
665;SDS011;315;48.738;9.126;2023-02-15T04:11:30;35.47;;;21.90;;
665;SDS011;315;48.738;9.126;2023-02-15T04:13:56;34.80;;;23.77;;
665;SDS011;315;48.738;9.126;2023-02-15T04:16:23;28.80;;;20.40;;
665;SDS011;315;48.738;9.126;2023-02-15T04:18:49;31.40;;;21.00;;
665;SDS011;315;48.738;9.126;2023-02-15T04:21:33;32.77;;;22.17;;
665;SDS011;315;48.738;9.126;2023-02-15T04:24:17;38.77;;;22.20;;
665;SDS011;315;48.738;9.126;2023-02-15T04:27:02;31.37;;;21.57;;
665;SDS011;315;48.738;9.126;2023-02-15T04:29:29;29.90;;;21.87;;
665;SDS011;315;48.738;9.126;2023-02-15T04:31:55;38.17;;;22.80;;
665;SDS011;315;48.738;9.126;2023-02-15T04:34:22;27.63;;;20.60;;
665;SDS011;315;48.738;9.126;2023-02-15T04:36:47;28.00;;;19.27;;
665;SDS011;315;48.738;9.126;2023-02-15T04:39:15;26.47;;;20.00;;
665;SDS011;315;48.738;9.126;2023-02-15T04:41:42;31.40;;;19.90;;
665;SDS011;315;48.738;9.126;2023-02-15T04:44:08;31.23;;;19.90;;
665;SDS011;315;48.738;9.126;2023-02-15T04:46:34;33.07;;;19.93;;
665;SDS011;315;48.738;9.126;2023-02-15T04:49:00;36.60;;;22.40;;
665;SDS011;315;48.738;9.126;2023-02-15T04:51:25;30.80;;;20.40;;
665;SDS011;315;48.738;9.126;2023-02-15T04:53:51;30.37;;;20.83;;
665;SDS011;315;48.738;9.126;2023-02-15T04:56:20;35.67;;;22.80;;
665;SDS011;315;48.738;9.126;2023-02-15T04:58:45;26.40;;;19.70;;
665;SDS011;315;48.738;9.126;2023-02-15T05:01:11;29.07;;;19.90;;
665;SDS011;315;48.738;9.126;2023-02-15T05:03:37;31.90;;;22.27;;
665;SDS011;315;48.738;9.126;2023-02-15T05:06:03;32.30;;;20.40;;
665;SDS011;315;48.738;9.126;2023-02-15T05:08:29;34.80;;;21.23;;
665;SDS011;315;48.738;9.126;2023-02-15T05:10:56;29.70;;;20.97;;
665;SDS011;315;48.738;9.126;2023-02-15T05:13:21;35.30;;;22.63;;
665;SDS011;315;48.738;9.126;2023-02-15T05:15:48;32.53;;;21.57;;
665;SDS011;315;48.738;9.126;2023-02-15T05:18:14;32.03;;;22.33;;
665;SDS011;315;48.738;9.126;2023-02-15T05:20:40;29.70;;;21.90;;
665;SDS011;315;48.738;9.126;2023-02-15T05:23:06;29.97;;;18.37;;
665;SDS011;315;48.738;9.126;2023-02-15T05:25:31;28.50;;;20.33;;
665;SDS011;315;48.738;9.126;2023-02-15T05:28:17;30.43;;;20.87;;
665;SDS011;315;48.738;9.126;2023-02-15T05:30:46;27.10;;;19.97;;
665;SDS011;315;48.738;9.126;2023-02-15T05:33:13;26.77;;;20.03;;
665;SDS011;315;48.738;9.126;2023-02-15T05:35:39;25.43;;;18.10;;
665;SDS011;315;48.738;9.126;2023-02-15T05:38:04;30.63;;;18.50;;
665;SDS011;315;48.738;9.126;2023-02-15T05:40:30;29.13;;;21.10;;
665;SDS011;315;48.738;9.126;2023-02-15T05:42:56;30.60;;;19.90;;
665;SDS011;315;48.738;9.126;2023-02-15T05:45:21;29.70;;;19.77;;
665;SDS011;315;48.738;9.126;2023-02-15T05:47:47;29.53;;;19.93;;
665;SDS011;315;48.738;9.126;2023-02-15T05:50:12;30.83;;;20.03;;
665;SDS011;315;48.738;9.126;2023-02-15T05:52:38;31.60;;;20.00;;
665;SDS011;315;48.738;9.126;2023-02-15T05:55:04;29.53;;;20.27;;
665;SDS011;315;48.738;9.126;2023-02-15T05:57:30;30.87;;;19.07;;
665;SDS011;315;48.738;9.126;2023-02-15T05:59:55;27.37;;;20.33;;
665;SDS011;315;48.738;9.126;2023-02-15T06:02:21;31.17;;;19.90;;
665;SDS011;315;48.738;9.126;2023-02-15T06:04:47;30.03;;;19.00;;
665;SDS011;315;48.738;9.126;2023-02-15T06:07:12;30.40;;;20.03;;
665;SDS011;315;48.738;9.126;2023-02-15T06:09:38;27.10;;;20.17;;
665;SDS011;315;48.738;9.126;2023-02-15T06:12:04;27.60;;;19.20;;
665;SDS011;315;48.738;9.126;2023-02-15T06:14:29;29.10;;;20.57;;
665;SDS011;315;48.738;9.126;2023-02-15T06:16:55;31.90;;;20.37;;
665;SDS011;315;48.738;9.126;2023-02-15T06:19:20;32.03;;;20.10;;
665;SDS011;315;48.738;9.126;2023-02-15T06:21:47;33.53;;;21.07;;
665;SDS011;315;48.738;9.126;2023-02-15T06:24:13;25.70;;;19.20;;
665;SDS011;315;48.738;9.126;2023-02-15T06:26:39;27.33;;;20.93;;
665;SDS011;315;48.738;9.126;2023-02-15T06:29:04;29.10;;;20.30;;
665;SDS011;315;48.738;9.126;2023-02-15T06:31:30;29.93;;;19.93;;
665;SDS011;315;48.738;9.126;2023-02-15T06:33:55;25.57;;;19.20;;
665;SDS011;315;48.738;9.126;2023-02-15T06:36:29;30.87;;;20.27;;
665;SDS011;315;48.738;9.126;2023-02-15T06:38:55;27.20;;;19.37;;
665;SDS011;315;48.738;9.126;2023-02-15T06:41:21;30.13;;;21.07;;
665;SDS011;315;48.738;9.126;2023-02-15T06:43:47;32.27;;;21.20;;
665;SDS011;315;48.738;9.126;2023-02-15T06:46:13;32.63;;;21.17;;
665;SDS011;315;48.738;9.126;2023-02-15T06:48:38;32.67;;;21.80;;
665;SDS011;315;48.738;9.126;2023-02-15T06:51:04;24.13;;;19.03;;
665;SDS011;315;48.738;9.126;2023-02-15T06:53:29;35.07;;;21.43;;
665;SDS011;315;48.738;9.126;2023-02-15T06:56:05;29.00;;;20.40;;
665;SDS011;315;48.738;9.126;2023-02-15T06:58:33;31.53;;;20.20;;
665;SDS011;315;48.738;9.126;2023-02-15T07:01:06;35.57;;;21.60;;
665;SDS011;315;48.738;9.126;2023-02-15T07:03:32;28.97;;;21.27;;
665;SDS011;315;48.738;9.126;2023-02-15T07:05:59;31.13;;;19.93;;
665;SDS011;315;48.738;9.126;2023-02-15T07:08:28;28.60;;;20.40;;
665;SDS011;315;48.738;9.126;2023-02-15T07:10:54;27.30;;;19.40;;
665;SDS011;315;48.738;9.126;2023-02-15T07:13:40;26.47;;;19.83;;
665;SDS011;315;48.738;9.126;2023-02-15T07:16:07;29.47;;;20.27;;
665;SDS011;315;48.738;9.126;2023-02-15T07:18:33;24.57;;;19.20;;
665;SDS011;315;48.738;9.126;2023-02-15T07:20:58;25.27;;;21.00;;
665;SDS011;315;48.738;9.126;2023-02-15T07:23:24;29.03;;;21.97;;
665;SDS011;315;48.738;9.126;2023-02-15T07:25:55;23.50;;;18.83;;
665;SDS011;315;48.738;9.126;2023-02-15T07:28:22;26.97;;;19.00;;
665;SDS011;315;48.738;9.126;2023-02-15T07:30:47;23.70;;;18.30;;
665;SDS011;315;48.738;9.126;2023-02-15T07:33:13;23.67;;;18.97;;
665;SDS011;315;48.738;9.126;2023-02-15T07:35:48;25.43;;;18.40;;
665;SDS011;315;48.738;9.126;2023-02-15T07:38:15;24.90;;;18.50;;
665;SDS011;315;48.738;9.126;2023-02-15T07:40:40;25.30;;;20.10;;
665;SDS011;315;48.738;9.126;2023-02-15T07:43:06;25.60;;;18.00;;
665;SDS011;315;48.738;9.126;2023-02-15T07:45:32;24.23;;;19.67;;
665;SDS011;315;48.738;9.126;2023-02-15T07:47:57;23.00;;;17.83;;
665;SDS011;315;48.738;9.126;2023-02-15T07:50:24;23.00;;;19.47;;
665;SDS011;315;48.738;9.126;2023-02-15T07:52:50;25.20;;;18.43;;
665;SDS011;315;48.738;9.126;2023-02-15T07:55:15;27.40;;;19.57;;
665;SDS011;315;48.738;9.126;2023-02-15T07:57:42;28.90;;;21.03;;
665;SDS011;315;48.738;9.126;2023-02-15T08:00:12;23.10;;;20.30;;
665;SDS011;315;48.738;9.126;2023-02-15T08:02:38;23.40;;;20.70;;
665;SDS011;315;48.738;9.126;2023-02-15T08:05:04;28.20;;;20.50;;
665;SDS011;315;48.738;9.126;2023-02-15T08:07:30;28.30;;;19.63;;
665;SDS011;315;48.738;9.126;2023-02-15T08:09:56;26.63;;;20.60;;
665;SDS011;315;48.738;9.126;2023-02-15T08:12:21;25.67;;;20.43;;
665;SDS011;315;48.738;9.126;2023-02-15T08:14:47;24.70;;;20.07;;
665;SDS011;315;48.738;9.126;2023-02-15T08:17:12;23.10;;;19.70;;
665;SDS011;315;48.738;9.126;2023-02-15T08:19:38;22.03;;;19.40;;
665;SDS011;315;48.738;9.126;2023-02-15T08:22:05;22.73;;;18.97;;
665;SDS011;315;48.738;9.126;2023-02-15T08:24:32;23.80;;;20.57;;
665;SDS011;315;48.738;9.126;2023-02-15T08:26:59;26.63;;;21.30;;
665;SDS011;315;48.738;9.126;2023-02-15T08:29:28;32.60;;;24.70;;
665;SDS011;315;48.738;9.126;2023-02-15T08:31:58;30.30;;;26.17;;
665;SDS011;315;48.738;9.126;2023-02-15T08:34:27;27.97;;;24.47;;
665;SDS011;315;48.738;9.126;2023-02-15T08:36:54;28.87;;;23.80;;
665;SDS011;315;48.738;9.126;2023-02-15T08:39:20;27.33;;;24.10;;
665;SDS011;315;48.738;9.126;2023-02-15T08:41:46;26.53;;;23.97;;
665;SDS011;315;48.738;9.126;2023-02-15T08:44:14;28.30;;;24.00;;
665;SDS011;315;48.738;9.126;2023-02-15T08:46:42;23.50;;;21.13;;
665;SDS011;315;48.738;9.126;2023-02-15T08:49:09;25.73;;;22.97;;
665;SDS011;315;48.738;9.126;2023-02-15T08:51:38;23.67;;;21.27;;
665;SDS011;315;48.738;9.126;2023-02-15T08:54:05;24.03;;;21.70;;
665;SDS011;315;48.738;9.126;2023-02-15T08:56:34;24.40;;;21.80;;
665;SDS011;315;48.738;9.126;2023-02-15T08:59:01;23.33;;;20.90;;
665;SDS011;315;48.738;9.126;2023-02-15T09:01:28;22.97;;;20.70;;
665;SDS011;315;48.738;9.126;2023-02-15T09:04:05;25.50;;;22.83;;
665;SDS011;315;48.738;9.126;2023-02-15T09:06:36;24.00;;;21.67;;
665;SDS011;315;48.738;9.126;2023-02-15T09:09:02;22.90;;;20.20;;
665;SDS011;315;48.738;9.126;2023-02-15T09:11:29;24.67;;;22.37;;
665;SDS011;315;48.738;9.126;2023-02-15T09:13:56;25.00;;;22.57;;
665;SDS011;315;48.738;9.126;2023-02-15T09:16:25;26.30;;;23.70;;
665;SDS011;315;48.738;9.126;2023-02-15T09:18:52;24.43;;;21.93;;
665;SDS011;315;48.738;9.126;2023-02-15T09:21:19;24.27;;;21.67;;
665;SDS011;315;48.738;9.126;2023-02-15T09:23:47;23.93;;;21.70;;
665;SDS011;315;48.738;9.126;2023-02-15T09:26:17;23.77;;;21.67;;
665;SDS011;315;48.738;9.126;2023-02-15T09:28:44;25.77;;;23.20;;
665;SDS011;315;48.738;9.126;2023-02-15T09:31:14;25.60;;;23.10;;
665;SDS011;315;48.738;9.126;2023-02-15T09:33:43;26.30;;;23.77;;
665;SDS011;315;48.738;9.126;2023-02-15T09:36:17;24.80;;;22.60;;
665;SDS011;315;48.738;9.126;2023-02-15T09:38:48;27.00;;;24.30;;
665;SDS011;315;48.738;9.126;2023-02-15T09:41:41;24.87;;;22.43;;
665;SDS011;315;48.738;9.126;2023-02-15T09:57:51;24.77;;;22.57;;
665;SDS011;315;48.738;9.126;2023-02-15T10:00:59;23.03;;;21.03;;
665;SDS011;315;48.738;9.126;2023-02-15T10:03:33;26.50;;;24.17;;
665;SDS011;315;48.738;9.126;2023-02-15T10:08:52;25.63;;;23.33;;
665;SDS011;315;48.738;9.126;2023-02-15T10:11:47;26.67;;;24.07;;
665;SDS011;315;48.738;9.126;2023-02-15T10:28:58;25.67;;;23.20;;
665;SDS011;315;48.738;9.126;2023-02-15T10:31:49;24.30;;;22.10;;
665;SDS011;315;48.738;9.126;2023-02-15T10:34:39;26.37;;;23.97;;
665;SDS011;315;48.738;9.126;2023-02-15T10:37:19;24.53;;;22.03;;
665;SDS011;315;48.738;9.126;2023-02-15T10:42:37;26.10;;;23.80;;
665;SDS011;315;48.738;9.126;2023-02-15T10:51:15;22.33;;;20.33;;
665;SDS011;315;48.738;9.126;2023-02-15T10:53:59;24.67;;;21.97;;
665;SDS011;315;48.738;9.126;2023-02-15T11:05:17;23.70;;;21.53;;
665;SDS011;315;48.738;9.126;2023-02-15T11:07:46;23.57;;;21.47;;
665;SDS011;315;48.738;9.126;2023-02-15T11:13:11;23.40;;;21.27;;
665;SDS011;315;48.738;9.126;2023-02-15T11:15:44;23.63;;;21.40;;
665;SDS011;315;48.738;9.126;2023-02-15T11:18:28;22.53;;;20.60;;
665;SDS011;315;48.738;9.126;2023-02-15T11:23:49;24.77;;;22.40;;
665;SDS011;315;48.738;9.126;2023-02-15T11:29:09;24.20;;;22.00;;
665;SDS011;315;48.738;9.126;2023-02-15T11:31:46;23.03;;;20.90;;
665;SDS011;315;48.738;9.126;2023-02-15T11:34:19;23.80;;;21.57;;
665;SDS011;315;48.738;9.126;2023-02-15T11:36:54;25.70;;;23.20;;
665;SDS011;315;48.738;9.126;2023-02-15T11:39:23;24.43;;;22.23;;
665;SDS011;315;48.738;9.126;2023-02-15T11:41:54;25.90;;;22.97;;
665;SDS011;315;48.738;9.126;2023-02-15T11:44:23;27.63;;;23.43;;
665;SDS011;315;48.738;9.126;2023-02-15T11:46:57;25.20;;;22.80;;
665;SDS011;315;48.738;9.126;2023-02-15T11:49:25;25.33;;;22.83;;
665;SDS011;315;48.738;9.126;2023-02-15T11:51:54;29.80;;;26.80;;
665;SDS011;315;48.738;9.126;2023-02-15T11:54:23;26.90;;;24.27;;
665;SDS011;315;48.738;9.126;2023-02-15T11:56:53;27.47;;;24.60;;
665;SDS011;315;48.738;9.126;2023-02-15T11:59:34;26.93;;;24.67;;
665;SDS011;315;48.738;9.126;2023-02-15T12:02:16;27.70;;;25.40;;
665;SDS011;315;48.738;9.126;2023-02-15T12:04:46;26.00;;;23.80;;
665;SDS011;315;48.738;9.126;2023-02-15T12:12:38;26.40;;;24.10;;
665;SDS011;315;48.738;9.126;2023-02-15T12:15:05;25.47;;;23.17;;
665;SDS011;315;48.738;9.126;2023-02-15T12:17:33;26.30;;;23.80;;
665;SDS011;315;48.738;9.126;2023-02-15T12:20:04;27.60;;;23.53;;
665;SDS011;315;48.738;9.126;2023-02-15T12:22:37;27.87;;;25.40;;
665;SDS011;315;48.738;9.126;2023-02-15T12:27:47;25.23;;;22.70;;
665;SDS011;315;48.738;9.126;2023-02-15T12:30:22;26.63;;;24.10;;
665;SDS011;315;48.738;9.126;2023-02-15T12:32:57;26.83;;;24.37;;
665;SDS011;315;48.738;9.126;2023-02-15T12:35:31;26.90;;;24.40;;
665;SDS011;315;48.738;9.126;2023-02-15T12:38:03;27.70;;;25.20;;
665;SDS011;315;48.738;9.126;2023-02-15T12:40:36;26.77;;;24.17;;
665;SDS011;315;48.738;9.126;2023-02-15T12:43:02;25.97;;;23.67;;
665;SDS011;315;48.738;9.126;2023-02-15T12:45:34;27.03;;;24.63;;
665;SDS011;315;48.738;9.126;2023-02-15T12:48:15;24.87;;;22.43;;
665;SDS011;315;48.738;9.126;2023-02-15T12:50:43;25.00;;;23.00;;
665;SDS011;315;48.738;9.126;2023-02-15T12:53:15;26.93;;;24.40;;
665;SDS011;315;48.738;9.126;2023-02-15T12:55:49;26.80;;;24.00;;
665;SDS011;315;48.738;9.126;2023-02-15T12:58:22;27.67;;;25.30;;
665;SDS011;315;48.738;9.126;2023-02-15T13:01:01;26.20;;;23.80;;
665;SDS011;315;48.738;9.126;2023-02-15T13:03:33;27.40;;;24.73;;
665;SDS011;315;48.738;9.126;2023-02-15T13:06:00;27.73;;;24.97;;
665;SDS011;315;48.738;9.126;2023-02-15T13:08:28;28.33;;;25.70;;
665;SDS011;315;48.738;9.126;2023-02-15T13:11:11;26.87;;;24.43;;
665;SDS011;315;48.738;9.126;2023-02-15T13:13:45;25.80;;;23.70;;
665;SDS011;315;48.738;9.126;2023-02-15T13:16:19;25.77;;;23.57;;
665;SDS011;315;48.738;9.126;2023-02-15T13:18:55;27.50;;;24.90;;
665;SDS011;315;48.738;9.126;2023-02-15T13:21:23;25.33;;;23.13;;
665;SDS011;315;48.738;9.126;2023-02-15T13:24:00;28.83;;;26.23;;
665;SDS011;315;48.738;9.126;2023-02-15T13:26:30;25.83;;;23.23;;
665;SDS011;315;48.738;9.126;2023-02-15T13:28:58;29.27;;;26.43;;
665;SDS011;315;48.738;9.126;2023-02-15T13:31:33;26.43;;;24.30;;
665;SDS011;315;48.738;9.126;2023-02-15T13:34:03;27.53;;;25.03;;
665;SDS011;315;48.738;9.126;2023-02-15T13:53:24;26.00;;;23.70;;
665;SDS011;315;48.738;9.126;2023-02-15T13:55:57;24.77;;;22.77;;
665;SDS011;315;48.738;9.126;2023-02-15T13:58:44;26.40;;;24.20;;
665;SDS011;315;48.738;9.126;2023-02-15T14:01:43;25.50;;;23.40;;
665;SDS011;315;48.738;9.126;2023-02-15T14:18:47;23.00;;;21.03;;
665;SDS011;315;48.738;9.126;2023-02-15T14:21:33;25.80;;;23.33;;
665;SDS011;315;48.738;9.126;2023-02-15T14:24:46;23.53;;;21.13;;
665;SDS011;315;48.738;9.126;2023-02-15T14:27:15;24.80;;;20.73;;
665;SDS011;315;48.738;9.126;2023-02-15T14:32:47;24.70;;;22.20;;
665;SDS011;315;48.738;9.126;2023-02-15T14:35:20;23.53;;;21.13;;
665;SDS011;315;48.738;9.126;2023-02-15T14:43:10;22.00;;;19.70;;
665;SDS011;315;48.738;9.126;2023-02-15T14:48:42;23.83;;;21.53;;
665;SDS011;315;48.738;9.126;2023-02-15T14:57:11;24.93;;;20.17;;
665;SDS011;315;48.738;9.126;2023-02-15T15:01:58;26.47;;;23.57;;
665;SDS011;315;48.738;9.126;2023-02-15T15:04:33;23.23;;;20.30;;
665;SDS011;315;48.738;9.126;2023-02-15T15:12:45;30.10;;;20.50;;
665;SDS011;315;48.738;9.126;2023-02-15T15:15:15;25.33;;;22.00;;
665;SDS011;315;48.738;9.126;2023-02-15T15:18:10;26.93;;;22.67;;
665;SDS011;315;48.738;9.126;2023-02-15T15:21:08;22.80;;;20.40;;
665;SDS011;315;48.738;9.126;2023-02-15T15:23:40;28.90;;;23.50;;
665;SDS011;315;48.738;9.126;2023-02-15T15:26:23;28.60;;;23.00;;
665;SDS011;315;48.738;9.126;2023-02-15T15:28:54;26.73;;;22.00;;
665;SDS011;315;48.738;9.126;2023-02-15T15:31:38;24.80;;;22.30;;
665;SDS011;315;48.738;9.126;2023-02-15T15:40:23;29.10;;;21.70;;
665;SDS011;315;48.738;9.126;2023-02-15T15:43:27;25.77;;;23.00;;
665;SDS011;315;48.738;9.126;2023-02-15T15:46:12;29.97;;;26.73;;
665;SDS011;315;48.738;9.126;2023-02-15T15:49:06;25.40;;;22.80;;
665;SDS011;315;48.738;9.126;2023-02-15T15:51:37;28.30;;;23.33;;
665;SDS011;315;48.738;9.126;2023-02-15T15:54:05;24.77;;;22.07;;
665;SDS011;315;48.738;9.126;2023-02-15T15:56:32;23.07;;;19.97;;
665;SDS011;315;48.738;9.126;2023-02-15T15:59:01;28.93;;;21.20;;
665;SDS011;315;48.738;9.126;2023-02-15T16:01:30;24.43;;;21.50;;
665;SDS011;315;48.738;9.126;2023-02-15T16:04:00;23.00;;;20.10;;
665;SDS011;315;48.738;9.126;2023-02-15T16:06:30;21.33;;;19.03;;
665;SDS011;315;48.738;9.126;2023-02-15T16:09:10;24.30;;;21.17;;
665;SDS011;315;48.738;9.126;2023-02-15T16:11:36;25.83;;;20.30;;
665;SDS011;315;48.738;9.126;2023-02-15T16:14:08;25.17;;;21.30;;
665;SDS011;315;48.738;9.126;2023-02-15T16:16:37;26.37;;;21.00;;
665;SDS011;315;48.738;9.126;2023-02-15T16:19:03;29.10;;;22.97;;
665;SDS011;315;48.738;9.126;2023-02-15T16:21:31;22.23;;;19.80;;
665;SDS011;315;48.738;9.126;2023-02-15T16:24:06;25.80;;;19.80;;
665;SDS011;315;48.738;9.126;2023-02-15T16:29:30;24.90;;;20.50;;
665;SDS011;315;48.738;9.126;2023-02-15T16:32:00;27.70;;;21.13;;
665;SDS011;315;48.738;9.126;2023-02-15T16:34:31;25.27;;;19.50;;
665;SDS011;315;48.738;9.126;2023-02-15T16:37:16;23.23;;;20.00;;
665;SDS011;315;48.738;9.126;2023-02-15T16:39:43;21.43;;;19.20;;
665;SDS011;315;48.738;9.126;2023-02-15T16:42:10;24.07;;;20.60;;
665;SDS011;315;48.738;9.126;2023-02-15T16:44:39;24.53;;;20.77;;
665;SDS011;315;48.738;9.126;2023-02-15T16:47:06;26.50;;;21.07;;
665;SDS011;315;48.738;9.126;2023-02-15T16:49:40;27.77;;;21.20;;
665;SDS011;315;48.738;9.126;2023-02-15T16:52:11;22.53;;;20.17;;
665;SDS011;315;48.738;9.126;2023-02-15T16:54:40;24.83;;;20.83;;
665;SDS011;315;48.738;9.126;2023-02-15T16:57:14;24.87;;;21.23;;
665;SDS011;315;48.738;9.126;2023-02-15T16:59:46;25.90;;;21.93;;
665;SDS011;315;48.738;9.126;2023-02-15T17:02:18;33.43;;;27.57;;
665;SDS011;315;48.738;9.126;2023-02-15T17:04:57;41.63;;;31.30;;
665;SDS011;315;48.738;9.126;2023-02-15T17:07:26;32.57;;;26.40;;
665;SDS011;315;48.738;9.126;2023-02-15T17:09:52;27.43;;;23.50;;
665;SDS011;315;48.738;9.126;2023-02-15T17:18:14;30.17;;;22.27;;
665;SDS011;315;48.738;9.126;2023-02-15T17:20:42;28.00;;;23.47;;
665;SDS011;315;48.738;9.126;2023-02-15T17:25:56;28.47;;;21.50;;
665;SDS011;315;48.738;9.126;2023-02-15T17:28:24;27.67;;;19.63;;
665;SDS011;315;48.738;9.126;2023-02-15T17:30:52;27.20;;;21.20;;
665;SDS011;315;48.738;9.126;2023-02-15T17:33:28;31.93;;;23.17;;
665;SDS011;315;48.738;9.126;2023-02-15T17:36:06;24.13;;;20.10;;
665;SDS011;315;48.738;9.126;2023-02-15T17:39:20;25.73;;;20.93;;
665;SDS011;315;48.738;9.126;2023-02-15T17:41:47;22.60;;;19.87;;
665;SDS011;315;48.738;9.126;2023-02-15T17:44:12;26.83;;;21.77;;
665;SDS011;315;48.738;9.126;2023-02-15T17:46:40;26.13;;;20.87;;
665;SDS011;315;48.738;9.126;2023-02-15T17:49:06;28.83;;;22.73;;
665;SDS011;315;48.738;9.126;2023-02-15T17:51:38;25.73;;;21.17;;
665;SDS011;315;48.738;9.126;2023-02-15T17:54:03;27.10;;;21.53;;
665;SDS011;315;48.738;9.126;2023-02-15T17:56:48;29.27;;;24.00;;
665;SDS011;315;48.738;9.126;2023-02-15T17:59:13;28.43;;;20.80;;
665;SDS011;315;48.738;9.126;2023-02-15T18:01:46;27.40;;;21.50;;
665;SDS011;315;48.738;9.126;2023-02-15T18:04:32;31.37;;;21.47;;
665;SDS011;315;48.738;9.126;2023-02-15T18:07:18;26.37;;;20.93;;
665;SDS011;315;48.738;9.126;2023-02-15T18:10:05;30.47;;;21.80;;
665;SDS011;315;48.738;9.126;2023-02-15T18:12:59;25.73;;;19.60;;
665;SDS011;315;48.738;9.126;2023-02-15T18:15:24;24.93;;;21.17;;
665;SDS011;315;48.738;9.126;2023-02-15T18:17:50;29.30;;;19.60;;
665;SDS011;315;48.738;9.126;2023-02-15T18:22:47;26.17;;;21.20;;
665;SDS011;315;48.738;9.126;2023-02-15T18:25:14;24.73;;;19.13;;
665;SDS011;315;48.738;9.126;2023-02-15T18:27:41;34.93;;;22.67;;